sensor_id;sensor_type;location;lat;lon;timestamp;temperature;humidity
9542;DHT22;4809;48.224;8.572;2022-08-11T00:00:12;15.40;54.00
9542;DHT22;4809;48.224;8.572;2022-08-11T00:02:42;15.30;54.30
9542;DHT22;4809;48.224;8.572;2022-08-11T00:05:14;15.40;54.00
9542;DHT22;4809;48.224;8.572;2022-08-11T00:10:13;15.40;53.90
9542;DHT22;4809;48.224;8.572;2022-08-11T00:12:41;15.40;53.70
9542;DHT22;4809;48.224;8.572;2022-08-11T00:15:08;15.50;53.90
9542;DHT22;4809;48.224;8.572;2022-08-11T00:17:35;15.50;54.20
9542;DHT22;4809;48.224;8.572;2022-08-11T00:20:05;15.60;53.90
9542;DHT22;4809;48.224;8.572;2022-08-11T00:22:32;15.60;54.00
9542;DHT22;4809;48.224;8.572;2022-08-11T00:25:00;15.60;53.60
9542;DHT22;4809;48.224;8.572;2022-08-11T00:27:36;15.60;53.70
9542;DHT22;4809;48.224;8.572;2022-08-11T00:30:04;15.60;53.60
9542;DHT22;4809;48.224;8.572;2022-08-11T00:32:30;15.50;54.00
9542;DHT22;4809;48.224;8.572;2022-08-11T00:34:57;15.60;53.80
9542;DHT22;4809;48.224;8.572;2022-08-11T00:37:25;15.60;53.70
9542;DHT22;4809;48.224;8.572;2022-08-11T00:39:54;15.70;53.70
9542;DHT22;4809;48.224;8.572;2022-08-11T00:42:57;15.70;53.70
9542;DHT22;4809;48.224;8.572;2022-08-11T00:48:29;15.50;53.70
9542;DHT22;4809;48.224;8.572;2022-08-11T00:57:31;15.30;54.20
9542;DHT22;4809;48.224;8.572;2022-08-11T01:00:12;15.40;54.20
9542;DHT22;4809;48.224;8.572;2022-08-11T01:16:51;15.40;54.00
9542;DHT22;4809;48.224;8.572;2022-08-11T01:30:54;15.30;54.70
9542;DHT22;4809;48.224;8.572;2022-08-11T01:42:56;14.90;55.50
9542;DHT22;4809;48.224;8.572;2022-08-11T01:48:52;14.90;55.70
9542;DHT22;4809;48.224;8.572;2022-08-11T01:57:17;14.70;56.10
9542;DHT22;4809;48.224;8.572;2022-08-11T01:59:50;14.60;56.60
9542;DHT22;4809;48.224;8.572;2022-08-11T02:02:30;14.50;57.00
9542;DHT22;4809;48.224;8.572;2022-08-11T02:11:14;14.40;57.10
9542;DHT22;4809;48.224;8.572;2022-08-11T02:15:19;14.50;57.90
9542;DHT22;4809;48.224;8.572;2022-08-11T02:22:54;14.40;57.50
9542;DHT22;4809;48.224;8.572;2022-08-11T02:31:12;14.50;57.70
9542;DHT22;4809;48.224;8.572;2022-08-11T02:40:23;14.40;58.00
9542;DHT22;4809;48.224;8.572;2022-08-11T02:43:06;14.30;57.90
9542;DHT22;4809;48.224;8.572;2022-08-11T02:45:55;14.30;57.90
9542;DHT22;4809;48.224;8.572;2022-08-11T02:48:56;14.30;57.50
9542;DHT22;4809;48.224;8.572;2022-08-11T02:52:07;14.20;58.00
9542;DHT22;4809;48.224;8.572;2022-08-11T02:54:43;14.20;58.20
9542;DHT22;4809;48.224;8.572;2022-08-11T02:57:29;14.20;58.40
9542;DHT22;4809;48.224;8.572;2022-08-11T03:00:12;14.30;58.10
9542;DHT22;4809;48.224;8.572;2022-08-11T03:19:24;14.60;57.40
9542;DHT22;4809;48.224;8.572;2022-08-11T03:27:59;14.20;58.50
9542;DHT22;4809;48.224;8.572;2022-08-11T03:30:31;14.00;59.20
9542;DHT22;4809;48.224;8.572;2022-08-11T03:33:18;13.80;59.70
9542;DHT22;4809;48.224;8.572;2022-08-11T04:13:06;13.50;60.40
9542;DHT22;4809;48.224;8.572;2022-08-11T04:16:10;13.60;60.30
9542;DHT22;4809;48.224;8.572;2022-08-11T04:38:37;13.30;61.70
9542;DHT22;4809;48.224;8.572;2022-08-11T04:41:32;13.40;61.40
9542;DHT22;4809;48.224;8.572;2022-08-11T04:50:38;13.70;60.90
9542;DHT22;4809;48.224;8.572;2022-08-11T04:53:41;13.80;60.80
9542;DHT22;4809;48.224;8.572;2022-08-11T04:56:30;13.90;60.50
9542;DHT22;4809;48.224;8.572;2022-08-11T04:59:31;14.00;60.20
9542;DHT22;4809;48.224;8.572;2022-08-11T05:03:06;14.10;59.90
9542;DHT22;4809;48.224;8.572;2022-08-11T05:09:03;14.40;59.40
9542;DHT22;4809;48.224;8.572;2022-08-11T05:14:31;14.60;59.10
9542;DHT22;4809;48.224;8.572;2022-08-11T05:17:26;14.90;59.40
9542;DHT22;4809;48.224;8.572;2022-08-11T05:20:11;15.00;58.70
9542;DHT22;4809;48.224;8.572;2022-08-11T05:23:03;15.20;58.60
9542;DHT22;4809;48.224;8.572;2022-08-11T05:25:52;15.30;58.10
9542;DHT22;4809;48.224;8.572;2022-08-11T05:28:54;15.40;57.90
9542;DHT22;4809;48.224;8.572;2022-08-11T05:31:42;15.50;57.70
9542;DHT22;4809;48.224;8.572;2022-08-11T05:34:43;15.70;57.80
9542;DHT22;4809;48.224;8.572;2022-08-11T05:37:32;15.90;57.60
9542;DHT22;4809;48.224;8.572;2022-08-11T05:40:12;16.10;57.50
9542;DHT22;4809;48.224;8.572;2022-08-11T05:43:05;16.20;57.20
9542;DHT22;4809;48.224;8.572;2022-08-11T05:46:03;16.40;56.90
9542;DHT22;4809;48.224;8.572;2022-08-11T05:48:48;16.60;56.40
9542;DHT22;4809;48.224;8.572;2022-08-11T05:51:38;16.80;56.30
9542;DHT22;4809;48.224;8.572;2022-08-11T05:54:25;17.00;55.90
9542;DHT22;4809;48.224;8.572;2022-08-11T05:57:19;17.10;55.40
9542;DHT22;4809;48.224;8.572;2022-08-11T05:59:46;17.30;55.40
9542;DHT22;4809;48.224;8.572;2022-08-11T06:02:13;17.40;54.60
9542;DHT22;4809;48.224;8.572;2022-08-11T06:04:40;17.60;54.30
9542;DHT22;4809;48.224;8.572;2022-08-11T06:07:08;17.70;53.70
9542;DHT22;4809;48.224;8.572;2022-08-11T06:09:57;17.90;53.40
9542;DHT22;4809;48.224;8.572;2022-08-11T06:12:27;18.10;53.10
9542;DHT22;4809;48.224;8.572;2022-08-11T06:14:56;18.20;52.10
9542;DHT22;4809;48.224;8.572;2022-08-11T06:17:27;18.30;52.20
9542;DHT22;4809;48.224;8.572;2022-08-11T06:20:15;18.40;51.80
9542;DHT22;4809;48.224;8.572;2022-08-11T06:22:44;18.60;51.80
9542;DHT22;4809;48.224;8.572;2022-08-11T06:25:10;18.70;51.60
9542;DHT22;4809;48.224;8.572;2022-08-11T06:27:38;18.80;50.90
9542;DHT22;4809;48.224;8.572;2022-08-11T06:30:06;18.90;50.80
9542;DHT22;4809;48.224;8.572;2022-08-11T06:32:44;19.10;50.60
9542;DHT22;4809;48.224;8.572;2022-08-11T06:35:37;19.20;50.40
9542;DHT22;4809;48.224;8.572;2022-08-11T06:40:52;19.50;50.00
9542;DHT22;4809;48.224;8.572;2022-08-11T06:46:42;19.70;49.40
9542;DHT22;4809;48.224;8.572;2022-08-11T06:49:11;19.90;49.00
9542;DHT22;4809;48.224;8.572;2022-08-11T06:52:03;20.00;48.90
9542;DHT22;4809;48.224;8.572;2022-08-11T06:54:35;20.20;48.40
9542;DHT22;4809;48.224;8.572;2022-08-11T06:57:05;20.30;48.30
9542;DHT22;4809;48.224;8.572;2022-08-11T06:59:50;20.40;48.10
9542;DHT22;4809;48.224;8.572;2022-08-11T07:02:55;20.70;48.10
9542;DHT22;4809;48.224;8.572;2022-08-11T07:14:33;21.30;46.30
9542;DHT22;4809;48.224;8.572;2022-08-11T07:17:22;21.30;46.30
9542;DHT22;4809;48.224;8.572;2022-08-11T07:19:55;21.50;46.10
9542;DHT22;4809;48.224;8.572;2022-08-11T07:22:42;21.70;46.00
9542;DHT22;4809;48.224;8.572;2022-08-11T07:25:31;21.80;45.50
9542;DHT22;4809;48.224;8.572;2022-08-11T07:28:22;22.10;45.30
9542;DHT22;4809;48.224;8.572;2022-08-11T07:31:09;22.40;44.90
9542;DHT22;4809;48.224;8.572;2022-08-11T07:33:46;22.60;43.90
9542;DHT22;4809;48.224;8.572;2022-08-11T07:36:14;22.70;44.00
9542;DHT22;4809;48.224;8.572;2022-08-11T07:38:43;22.80;44.00
9542;DHT22;4809;48.224;8.572;2022-08-11T07:41:14;23.00;43.90
9542;DHT22;4809;48.224;8.572;2022-08-11T07:43:42;23.10;43.50
9542;DHT22;4809;48.224;8.572;2022-08-11T07:46:10;23.20;43.40
9542;DHT22;4809;48.224;8.572;2022-08-11T07:48:55;23.40;42.80
9542;DHT22;4809;48.224;8.572;2022-08-11T07:51:42;23.60;42.80
9542;DHT22;4809;48.224;8.572;2022-08-11T07:54:27;23.80;42.80
9542;DHT22;4809;48.224;8.572;2022-08-11T07:56:55;24.10;41.70
9542;DHT22;4809;48.224;8.572;2022-08-11T07:59:21;24.20;40.90
9542;DHT22;4809;48.224;8.572;2022-08-11T08:02:09;24.40;41.60
9542;DHT22;4809;48.224;8.572;2022-08-11T08:04:55;24.60;40.60
9542;DHT22;4809;48.224;8.572;2022-08-11T08:07:40;24.70;40.90
9542;DHT22;4809;48.224;8.572;2022-08-11T08:10:25;24.80;40.30
9542;DHT22;4809;48.224;8.572;2022-08-11T08:13:09;24.90;40.00
9542;DHT22;4809;48.224;8.572;2022-08-11T08:15:54;25.10;39.90
9542;DHT22;4809;48.224;8.572;2022-08-11T08:18:39;25.20;40.10
9542;DHT22;4809;48.224;8.572;2022-08-11T08:21:06;25.50;38.90
9542;DHT22;4809;48.224;8.572;2022-08-11T08:23:41;25.70;38.50
9542;DHT22;4809;48.224;8.572;2022-08-11T08:26:09;25.90;38.00
9542;DHT22;4809;48.224;8.572;2022-08-11T08:28:57;25.90;38.10
9542;DHT22;4809;48.224;8.572;2022-08-11T08:31:46;26.20;37.50
9542;DHT22;4809;48.224;8.572;2022-08-11T08:34:13;26.40;37.00
9542;DHT22;4809;48.224;8.572;2022-08-11T08:36:42;26.30;36.90
9542;DHT22;4809;48.224;8.572;2022-08-11T08:39:10;26.40;36.90
9542;DHT22;4809;48.224;8.572;2022-08-11T08:41:37;26.50;36.20
9542;DHT22;4809;48.224;8.572;2022-08-11T08:44:08;26.60;36.70
9542;DHT22;4809;48.224;8.572;2022-08-11T08:46:49;26.80;36.00
9542;DHT22;4809;48.224;8.572;2022-08-11T08:49:21;27.00;35.40
9542;DHT22;4809;48.224;8.572;2022-08-11T08:51:53;27.10;35.00
9542;DHT22;4809;48.224;8.572;2022-08-11T08:54:22;27.20;34.00
9542;DHT22;4809;48.224;8.572;2022-08-11T08:56:54;27.20;31.80
9542;DHT22;4809;48.224;8.572;2022-08-11T08:59:22;27.20;32.00
9542;DHT22;4809;48.224;8.572;2022-08-11T09:01:56;27.30;31.00
9542;DHT22;4809;48.224;8.572;2022-08-11T09:04:22;27.50;30.60
9542;DHT22;4809;48.224;8.572;2022-08-11T09:06:49;27.60;31.10
9542;DHT22;4809;48.224;8.572;2022-08-11T09:09:16;27.60;29.40
9542;DHT22;4809;48.224;8.572;2022-08-11T09:11:42;27.60;29.90
9542;DHT22;4809;48.224;8.572;2022-08-11T09:14:16;27.60;30.60
9542;DHT22;4809;48.224;8.572;2022-08-11T09:16:42;27.80;29.40
9542;DHT22;4809;48.224;8.572;2022-08-11T09:19:09;27.80;29.20
9542;DHT22;4809;48.224;8.572;2022-08-11T09:21:41;27.90;29.00
9542;DHT22;4809;48.224;8.572;2022-08-11T09:24:07;28.00;28.10
9542;DHT22;4809;48.224;8.572;2022-08-11T09:26:52;27.90;28.00
9542;DHT22;4809;48.224;8.572;2022-08-11T09:29:26;27.80;28.50
9542;DHT22;4809;48.224;8.572;2022-08-11T09:31:53;28.00;29.20
9542;DHT22;4809;48.224;8.572;2022-08-11T09:34:20;28.10;28.30
9542;DHT22;4809;48.224;8.572;2022-08-11T09:36:47;28.20;28.30
9542;DHT22;4809;48.224;8.572;2022-08-11T09:39:31;28.30;28.00
9542;DHT22;4809;48.224;8.572;2022-08-11T09:42:20;28.30;28.80
9542;DHT22;4809;48.224;8.572;2022-08-11T09:44:46;28.70;28.30
9542;DHT22;4809;48.224;8.572;2022-08-11T09:47:18;28.80;27.60
9542;DHT22;4809;48.224;8.572;2022-08-11T09:49:45;29.10;28.60
9542;DHT22;4809;48.224;8.572;2022-08-11T09:52:13;29.30;27.80
9542;DHT22;4809;48.224;8.572;2022-08-11T09:54:40;29.50;27.40
9542;DHT22;4809;48.224;8.572;2022-08-11T09:57:08;29.60;27.20
9542;DHT22;4809;48.224;8.572;2022-08-11T09:59:52;29.70;27.10
9542;DHT22;4809;48.224;8.572;2022-08-11T10:02:25;29.80;27.00
9542;DHT22;4809;48.224;8.572;2022-08-11T10:04:54;30.00;27.00
9542;DHT22;4809;48.224;8.572;2022-08-11T10:07:43;30.30;27.20
9542;DHT22;4809;48.224;8.572;2022-08-11T10:10:16;30.50;26.70
9542;DHT22;4809;48.224;8.572;2022-08-11T10:13:20;30.50;26.30
9542;DHT22;4809;48.224;8.572;2022-08-11T10:15:41;30.60;26.20
9542;DHT22;4809;48.224;8.572;2022-08-11T10:18:32;30.70;26.20
9542;DHT22;4809;48.224;8.572;2022-08-11T10:24:08;30.80;26.00
9542;DHT22;4809;48.224;8.572;2022-08-11T10:26:54;30.70;25.70
9542;DHT22;4809;48.224;8.572;2022-08-11T10:29:29;30.60;25.50
9542;DHT22;4809;48.224;8.572;2022-08-11T10:32:22;30.60;26.60
9542;DHT22;4809;48.224;8.572;2022-08-11T10:35:07;30.60;26.60
9542;DHT22;4809;48.224;8.572;2022-08-11T10:37:35;30.70;25.80
9542;DHT22;4809;48.224;8.572;2022-08-11T10:40:03;30.70;26.50
9542;DHT22;4809;48.224;8.572;2022-08-11T10:42:31;31.00;26.10
9542;DHT22;4809;48.224;8.572;2022-08-11T10:45:15;31.10;24.70
9542;DHT22;4809;48.224;8.572;2022-08-11T10:48:01;31.10;25.60
9542;DHT22;4809;48.224;8.572;2022-08-11T10:50:29;31.20;25.30
9542;DHT22;4809;48.224;8.572;2022-08-11T10:53:14;31.30;24.90
9542;DHT22;4809;48.224;8.572;2022-08-11T10:55:59;31.30;25.30
9542;DHT22;4809;48.224;8.572;2022-08-11T10:58:46;31.50;25.50
9542;DHT22;4809;48.224;8.572;2022-08-11T11:03:51;31.80;25.00
9542;DHT22;4809;48.224;8.572;2022-08-11T11:06:58;31.80;24.60
9542;DHT22;4809;48.224;8.572;2022-08-11T11:09:31;31.60;25.10
9542;DHT22;4809;48.224;8.572;2022-08-11T11:12:09;31.70;24.80
9542;DHT22;4809;48.224;8.572;2022-08-11T11:14:54;32.00;25.00
9542;DHT22;4809;48.224;8.572;2022-08-11T11:17:42;32.20;24.20
9542;DHT22;4809;48.224;8.572;2022-08-11T11:20:55;32.10;24.60
9542;DHT22;4809;48.224;8.572;2022-08-11T11:23:42;32.20;24.00
9542;DHT22;4809;48.224;8.572;2022-08-11T11:32:15;32.40;24.30
9542;DHT22;4809;48.224;8.572;2022-08-11T11:35:10;32.60;23.90
9542;DHT22;4809;48.224;8.572;2022-08-11T11:37:38;32.70;23.70
9542;DHT22;4809;48.224;8.572;2022-08-11T11:40:10;32.80;24.10
9542;DHT22;4809;48.224;8.572;2022-08-11T11:42:40;32.90;24.10
9542;DHT22;4809;48.224;8.572;2022-08-11T11:45:08;32.80;24.20
9542;DHT22;4809;48.224;8.572;2022-08-11T11:47:36;33.00;23.40
9542;DHT22;4809;48.224;8.572;2022-08-11T11:50:04;33.10;23.50
9542;DHT22;4809;48.224;8.572;2022-08-11T11:52:32;33.40;23.00
9542;DHT22;4809;48.224;8.572;2022-08-11T11:54:59;33.50;22.60
9542;DHT22;4809;48.224;8.572;2022-08-11T11:57:26;33.60;23.00
9542;DHT22;4809;48.224;8.572;2022-08-11T12:00:12;33.60;23.00
9542;DHT22;4809;48.224;8.572;2022-08-11T12:02:58;33.70;22.40
9542;DHT22;4809;48.224;8.572;2022-08-11T12:05:25;33.70;22.90
9542;DHT22;4809;48.224;8.572;2022-08-11T12:07:52;33.80;23.30
9542;DHT22;4809;48.224;8.572;2022-08-11T12:10:46;33.80;23.40
9542;DHT22;4809;48.224;8.572;2022-08-11T12:13:12;34.00;23.20
9542;DHT22;4809;48.224;8.572;2022-08-11T12:15:58;34.10;22.80
9542;DHT22;4809;48.224;8.572;2022-08-11T12:18:31;34.30;23.10
9542;DHT22;4809;48.224;8.572;2022-08-11T12:21:00;34.30;23.20
9542;DHT22;4809;48.224;8.572;2022-08-11T12:23:27;34.30;23.30
9542;DHT22;4809;48.224;8.572;2022-08-11T12:26:13;34.40;22.90
9542;DHT22;4809;48.224;8.572;2022-08-11T12:28:59;34.50;23.00
9542;DHT22;4809;48.224;8.572;2022-08-11T12:31:28;34.60;22.50
9542;DHT22;4809;48.224;8.572;2022-08-11T12:34:20;34.60;23.10
9542;DHT22;4809;48.224;8.572;2022-08-11T12:36:54;34.70;22.70
9542;DHT22;4809;48.224;8.572;2022-08-11T12:39:22;34.60;22.20
9542;DHT22;4809;48.224;8.572;2022-08-11T12:42:10;34.70;22.40
9542;DHT22;4809;48.224;8.572;2022-08-11T12:44:56;34.60;22.00
9542;DHT22;4809;48.224;8.572;2022-08-11T12:47:45;34.70;23.20
9542;DHT22;4809;48.224;8.572;2022-08-11T12:50:30;34.60;23.30
9542;DHT22;4809;48.224;8.572;2022-08-11T12:53:17;34.40;23.30
9542;DHT22;4809;48.224;8.572;2022-08-11T12:55:44;34.10;23.80
9542;DHT22;4809;48.224;8.572;2022-08-11T12:58:29;33.80;23.40
9542;DHT22;4809;48.224;8.572;2022-08-11T13:00:55;33.80;24.10
9542;DHT22;4809;48.224;8.572;2022-08-11T13:03:40;33.90;23.50
9542;DHT22;4809;48.224;8.572;2022-08-11T13:06:24;34.00;22.80
9542;DHT22;4809;48.224;8.572;2022-08-11T13:08:51;34.00;23.10
9542;DHT22;4809;48.224;8.572;2022-08-11T13:11:18;34.40;23.50
9542;DHT22;4809;48.224;8.572;2022-08-11T13:14:03;34.50;22.60
9542;DHT22;4809;48.224;8.572;2022-08-11T13:16:34;34.70;23.10
9542;DHT22;4809;48.224;8.572;2022-08-11T13:19:22;34.40;22.10
9542;DHT22;4809;48.224;8.572;2022-08-11T13:21:49;34.20;22.90
9542;DHT22;4809;48.224;8.572;2022-08-11T13:24:16;34.30;22.90
9542;DHT22;4809;48.224;8.572;2022-08-11T13:26:43;34.60;22.50
9542;DHT22;4809;48.224;8.572;2022-08-11T13:29:10;34.90;22.40
9542;DHT22;4809;48.224;8.572;2022-08-11T13:31:36;35.00;22.60
9542;DHT22;4809;48.224;8.572;2022-08-11T13:34:02;34.90;22.40
9542;DHT22;4809;48.224;8.572;2022-08-11T13:36:28;34.70;22.50
9542;DHT22;4809;48.224;8.572;2022-08-11T13:38:55;34.70;22.50
9542;DHT22;4809;48.224;8.572;2022-08-11T13:41:24;34.60;22.70
9542;DHT22;4809;48.224;8.572;2022-08-11T13:44:05;34.70;23.20
9542;DHT22;4809;48.224;8.572;2022-08-11T13:46:32;34.80;23.10
9542;DHT22;4809;48.224;8.572;2022-08-11T13:48:58;35.00;22.90
9542;DHT22;4809;48.224;8.572;2022-08-11T13:51:25;35.00;23.10
9542;DHT22;4809;48.224;8.572;2022-08-11T13:54:16;35.20;23.40
9542;DHT22;4809;48.224;8.572;2022-08-11T13:56:47;35.10;22.10
9542;DHT22;4809;48.224;8.572;2022-08-11T13:59:17;34.70;22.40
9542;DHT22;4809;48.224;8.572;2022-08-11T14:01:53;34.60;22.80
9542;DHT22;4809;48.224;8.572;2022-08-11T14:07:13;34.90;22.50
9542;DHT22;4809;48.224;8.572;2022-08-11T14:09:44;35.20;22.20
9542;DHT22;4809;48.224;8.572;2022-08-11T14:12:16;35.20;22.20
9542;DHT22;4809;48.224;8.572;2022-08-11T14:15:09;34.90;22.80
9542;DHT22;4809;48.224;8.572;2022-08-11T14:17:38;35.10;21.70
9542;DHT22;4809;48.224;8.572;2022-08-11T14:20:07;35.20;22.00
9542;DHT22;4809;48.224;8.572;2022-08-11T14:22:35;35.40;22.00
9542;DHT22;4809;48.224;8.572;2022-08-11T14:25:05;35.50;21.50
9542;DHT22;4809;48.224;8.572;2022-08-11T14:27:31;35.60;22.00
9542;DHT22;4809;48.224;8.572;2022-08-11T14:29:57;35.70;21.60
9542;DHT22;4809;48.224;8.572;2022-08-11T14:32:24;35.50;21.50
9542;DHT22;4809;48.224;8.572;2022-08-11T14:34:50;35.80;21.40
9542;DHT22;4809;48.224;8.572;2022-08-11T14:37:24;35.70;22.10
9542;DHT22;4809;48.224;8.572;2022-08-11T14:39:53;36.00;22.10
9542;DHT22;4809;48.224;8.572;2022-08-11T14:42:22;36.20;21.40
9542;DHT22;4809;48.224;8.572;2022-08-11T14:45:13;36.30;21.70
9542;DHT22;4809;48.224;8.572;2022-08-11T14:47:59;36.30;21.00
9542;DHT22;4809;48.224;8.572;2022-08-11T14:50:28;36.00;21.10
9542;DHT22;4809;48.224;8.572;2022-08-11T14:52:58;35.60;21.40
9542;DHT22;4809;48.224;8.572;2022-08-11T14:55:27;35.50;21.80
9542;DHT22;4809;48.224;8.572;2022-08-11T14:58:16;35.50;21.80
9542;DHT22;4809;48.224;8.572;2022-08-11T15:00:42;35.40;21.80
9542;DHT22;4809;48.224;8.572;2022-08-11T15:03:12;35.30;22.30
9542;DHT22;4809;48.224;8.572;2022-08-11T15:05:47;35.10;21.80
9542;DHT22;4809;48.224;8.572;2022-08-11T15:08:14;35.30;21.90
9542;DHT22;4809;48.224;8.572;2022-08-11T15:10:45;35.30;21.40
9542;DHT22;4809;48.224;8.572;2022-08-11T15:13:11;35.40;21.70
9542;DHT22;4809;48.224;8.572;2022-08-11T15:15:41;35.60;21.30
9542;DHT22;4809;48.224;8.572;2022-08-11T15:18:25;35.70;21.80
9542;DHT22;4809;48.224;8.572;2022-08-11T15:20:51;35.70;21.90
9542;DHT22;4809;48.224;8.572;2022-08-11T15:23:38;36.00;21.80
9542;DHT22;4809;48.224;8.572;2022-08-11T15:26:52;36.30;21.10
9542;DHT22;4809;48.224;8.572;2022-08-11T15:29:38;36.10;21.20
9542;DHT22;4809;48.224;8.572;2022-08-11T15:32:23;36.00;21.50
9542;DHT22;4809;48.224;8.572;2022-08-11T15:35:09;36.00;20.80
9542;DHT22;4809;48.224;8.572;2022-08-11T15:37:57;36.00;21.10
9542;DHT22;4809;48.224;8.572;2022-08-11T15:40:38;36.00;21.20
9542;DHT22;4809;48.224;8.572;2022-08-11T15:43:27;35.90;21.40
9542;DHT22;4809;48.224;8.572;2022-08-11T15:46:19;35.70;21.50
9542;DHT22;4809;48.224;8.572;2022-08-11T15:48:49;35.50;21.50
9542;DHT22;4809;48.224;8.572;2022-08-11T15:51:28;35.60;21.50
9542;DHT22;4809;48.224;8.572;2022-08-11T15:53:57;35.50;21.80
9542;DHT22;4809;48.224;8.572;2022-08-11T15:56:26;35.50;21.20
9542;DHT22;4809;48.224;8.572;2022-08-11T15:58:52;35.40;21.40
9542;DHT22;4809;48.224;8.572;2022-08-11T16:01:38;35.30;21.50
9542;DHT22;4809;48.224;8.572;2022-08-11T16:04:25;35.10;21.70
9542;DHT22;4809;48.224;8.572;2022-08-11T16:07:18;35.10;21.90
9542;DHT22;4809;48.224;8.572;2022-08-11T16:12:48;35.40;22.10
9542;DHT22;4809;48.224;8.572;2022-08-11T16:15:44;35.90;22.20
9542;DHT22;4809;48.224;8.572;2022-08-11T16:18:43;36.30;21.90
9542;DHT22;4809;48.224;8.572;2022-08-11T16:21:26;36.40;21.80
9542;DHT22;4809;48.224;8.572;2022-08-11T16:23:54;35.80;21.90
9542;DHT22;4809;48.224;8.572;2022-08-11T16:26:22;35.10;22.10
9542;DHT22;4809;48.224;8.572;2022-08-11T16:28:51;34.40;22.70
9542;DHT22;4809;48.224;8.572;2022-08-11T16:31:20;33.60;23.40
9542;DHT22;4809;48.224;8.572;2022-08-11T16:33:47;33.20;23.80
9542;DHT22;4809;48.224;8.572;2022-08-11T16:36:13;32.80;23.80
9542;DHT22;4809;48.224;8.572;2022-08-11T16:38:59;32.50;24.80
9542;DHT22;4809;48.224;8.572;2022-08-11T16:41:30;32.10;24.50
9542;DHT22;4809;48.224;8.572;2022-08-11T16:44:17;31.70;25.10
9542;DHT22;4809;48.224;8.572;2022-08-11T16:47:03;31.40;25.50
9542;DHT22;4809;48.224;8.572;2022-08-11T16:49:37;31.10;25.60
9542;DHT22;4809;48.224;8.572;2022-08-11T16:52:05;30.90;26.00
9542;DHT22;4809;48.224;8.572;2022-08-11T16:54:35;30.50;26.40
9542;DHT22;4809;48.224;8.572;2022-08-11T16:57:09;30.40;26.50
9542;DHT22;4809;48.224;8.572;2022-08-11T16:59:57;29.80;26.60
9542;DHT22;4809;48.224;8.572;2022-08-11T17:02:24;29.50;26.90
9542;DHT22;4809;48.224;8.572;2022-08-11T17:05:14;29.00;27.50
9542;DHT22;4809;48.224;8.572;2022-08-11T17:08:01;28.80;28.00
9542;DHT22;4809;48.224;8.572;2022-08-11T17:10:56;28.70;28.00
9542;DHT22;4809;48.224;8.572;2022-08-11T17:13:42;28.60;28.70
9542;DHT22;4809;48.224;8.572;2022-08-11T17:16:10;28.50;28.50
9542;DHT22;4809;48.224;8.572;2022-08-11T17:21:22;28.10;28.90
9542;DHT22;4809;48.224;8.572;2022-08-11T17:23:56;28.00;29.00
9542;DHT22;4809;48.224;8.572;2022-08-11T17:26:38;27.80;29.10
9542;DHT22;4809;48.224;8.572;2022-08-11T17:29:31;27.80;29.40
9542;DHT22;4809;48.224;8.572;2022-08-11T17:32:00;27.50;29.50
9542;DHT22;4809;48.224;8.572;2022-08-11T17:34:46;27.30;29.40
9542;DHT22;4809;48.224;8.572;2022-08-11T17:37:33;27.10;29.70
9542;DHT22;4809;48.224;8.572;2022-08-11T17:40:02;27.00;29.90
9542;DHT22;4809;48.224;8.572;2022-08-11T17:42:31;26.90;30.40
9542;DHT22;4809;48.224;8.572;2022-08-11T17:45:21;26.80;30.10
9542;DHT22;4809;48.224;8.572;2022-08-11T17:48:06;26.60;30.10
9542;DHT22;4809;48.224;8.572;2022-08-11T17:50:57;26.60;30.10
9542;DHT22;4809;48.224;8.572;2022-08-11T17:53:24;26.40;30.00
9542;DHT22;4809;48.224;8.572;2022-08-11T17:56:09;26.40;30.10
9542;DHT22;4809;48.224;8.572;2022-08-11T17:58:56;26.30;30.30
9542;DHT22;4809;48.224;8.572;2022-08-11T18:01:46;26.20;30.10
9542;DHT22;4809;48.224;8.572;2022-08-11T18:04:14;26.10;30.40
9542;DHT22;4809;48.224;8.572;2022-08-11T18:06:42;26.10;30.40
9542;DHT22;4809;48.224;8.572;2022-08-11T18:09:14;26.00;30.30
9542;DHT22;4809;48.224;8.572;2022-08-11T18:12:00;26.00;30.80
9542;DHT22;4809;48.224;8.572;2022-08-11T18:14:50;25.90;30.60
9542;DHT22;4809;48.224;8.572;2022-08-11T18:17:36;25.80;30.50
9542;DHT22;4809;48.224;8.572;2022-08-11T18:20:20;25.60;30.70
9542;DHT22;4809;48.224;8.572;2022-08-11T18:23:14;25.50;30.70
9542;DHT22;4809;48.224;8.572;2022-08-11T18:26:01;25.40;30.80
9542;DHT22;4809;48.224;8.572;2022-08-11T18:28:50;25.20;32.00
9542;DHT22;4809;48.224;8.572;2022-08-11T18:31:39;25.20;31.30
9542;DHT22;4809;48.224;8.572;2022-08-11T18:34:29;25.00;31.50
9542;DHT22;4809;48.224;8.572;2022-08-11T18:37:18;24.90;31.40
9542;DHT22;4809;48.224;8.572;2022-08-11T18:40:07;24.90;32.00
9542;DHT22;4809;48.224;8.572;2022-08-11T18:42:54;24.80;32.30
9542;DHT22;4809;48.224;8.572;2022-08-11T18:45:41;24.70;31.90
9542;DHT22;4809;48.224;8.572;2022-08-11T18:48:29;24.50;32.20
9542;DHT22;4809;48.224;8.572;2022-08-11T18:51:16;24.40;32.40
9542;DHT22;4809;48.224;8.572;2022-08-11T18:54:05;24.40;32.60
9542;DHT22;4809;48.224;8.572;2022-08-11T18:56:51;24.30;32.40
9542;DHT22;4809;48.224;8.572;2022-08-11T18:59:39;24.20;32.80
9542;DHT22;4809;48.224;8.572;2022-08-11T19:02:25;24.10;33.50
9542;DHT22;4809;48.224;8.572;2022-08-11T19:05:11;24.10;32.60
9542;DHT22;4809;48.224;8.572;2022-08-11T19:07:57;23.90;33.10
9542;DHT22;4809;48.224;8.572;2022-08-11T19:10:44;23.80;33.30
9542;DHT22;4809;48.224;8.572;2022-08-11T19:13:31;23.80;33.50
9542;DHT22;4809;48.224;8.572;2022-08-11T19:16:17;23.70;33.70
9542;DHT22;4809;48.224;8.572;2022-08-11T19:19:04;23.60;33.40
9542;DHT22;4809;48.224;8.572;2022-08-11T19:21:51;23.50;33.80
9542;DHT22;4809;48.224;8.572;2022-08-11T19:24:39;23.40;33.80
9542;DHT22;4809;48.224;8.572;2022-08-11T19:27:25;23.40;34.00
9542;DHT22;4809;48.224;8.572;2022-08-11T19:30:11;23.20;34.40
9542;DHT22;4809;48.224;8.572;2022-08-11T19:32:56;23.10;34.70
9542;DHT22;4809;48.224;8.572;2022-08-11T19:35:42;23.00;35.70
9542;DHT22;4809;48.224;8.572;2022-08-11T19:38:29;23.00;35.90
9542;DHT22;4809;48.224;8.572;2022-08-11T19:41:14;22.90;35.50
9542;DHT22;4809;48.224;8.572;2022-08-11T19:43:59;22.80;36.20
9542;DHT22;4809;48.224;8.572;2022-08-11T19:46:46;22.70;36.90
9542;DHT22;4809;48.224;8.572;2022-08-11T19:49:31;22.60;36.60
9542;DHT22;4809;48.224;8.572;2022-08-11T19:52:17;22.50;37.00
9542;DHT22;4809;48.224;8.572;2022-08-11T19:55:03;22.40;37.70
9542;DHT22;4809;48.224;8.572;2022-08-11T19:57:48;22.30;36.80
9542;DHT22;4809;48.224;8.572;2022-08-11T20:00:34;22.30;37.90
9542;DHT22;4809;48.224;8.572;2022-08-11T20:03:19;22.20;36.80
9542;DHT22;4809;48.224;8.572;2022-08-11T20:06:06;22.20;37.10
9542;DHT22;4809;48.224;8.572;2022-08-11T20:08:53;22.20;37.70
9542;DHT22;4809;48.224;8.572;2022-08-11T20:11:41;22.20;37.90
9542;DHT22;4809;48.224;8.572;2022-08-11T20:14:29;22.10;37.70
9542;DHT22;4809;48.224;8.572;2022-08-11T20:17:14;21.90;37.70
9542;DHT22;4809;48.224;8.572;2022-08-11T20:20:03;21.80;37.80
9542;DHT22;4809;48.224;8.572;2022-08-11T20:22:51;21.60;38.20
9542;DHT22;4809;48.224;8.572;2022-08-11T20:25:37;21.40;38.60
9542;DHT22;4809;48.224;8.572;2022-08-11T20:28:22;21.20;39.30
9542;DHT22;4809;48.224;8.572;2022-08-11T20:31:08;21.00;39.20
9542;DHT22;4809;48.224;8.572;2022-08-11T20:33:53;20.80;39.70
9542;DHT22;4809;48.224;8.572;2022-08-11T20:36:39;20.60;39.90
9542;DHT22;4809;48.224;8.572;2022-08-11T20:39:24;20.60;39.60
9542;DHT22;4809;48.224;8.572;2022-08-11T20:42:11;20.40;40.40
9542;DHT22;4809;48.224;8.572;2022-08-11T20:44:57;20.30;40.80